Time;durP1;ratioP1;P1;durP2;ratioP2;P2;SDS_P1;SDS_P2;PMS_P1;PMS_P2;Temp;Humidity;BMP_temperature;BMP_pressure;BME280_temperature;BME280_humidity;BME280_pressure;Samples;Min_cycle;Max_cycle;Signal;HPM_P1;HPM_P2
2022/03/22 00:00:58;;;;;;;25.88;6.47;;;13.90;46.00;;;;;;6126243;28;20039;-67
2022/03/22 00:04:02;;;;;;;9.80;5.45;;;13.80;46.10;;;;;;6125814;28;20524;-67
2022/03/22 00:07:03;;;;;;;16.02;6.45;;;13.80;46.00;;;;;;6126106;28;20042;-67
2022/03/22 00:10:04;;;;;;;13.85;6.18;;;13.80;45.90;;;;;;6125946;28;20123;-67
2022/03/22 00:13:05;;;;;;;16.65;6.13;;;13.80;45.80;;;;;;6126289;28;20039;-67
2022/03/22 00:16:07;;;;;;;16.52;6.10;;;13.80;45.90;;;;;;6110330;28;20086;-68
2022/03/22 00:19:08;;;;;;;16.02;5.95;;;13.80;45.80;;;;;;6121898;28;20068;-68
2022/03/22 00:22:11;;;;;;;14.98;5.60;;;13.80;45.80;;;;;;6125720;28;20044;-66
2022/03/22 00:25:14;;;;;;;16.05;6.40;;;13.80;45.80;;;;;;6126911;28;20067;-68
2022/03/22 00:28:15;;;;;;;16.83;6.15;;;13.80;45.80;;;;;;6125800;28;20044;-68
2022/03/22 00:31:16;;;;;;;17.55;6.22;;;13.70;45.80;;;;;;6127086;28;20126;-67
2022/03/22 00:34:17;;;;;;;12.07;5.80;;;13.70;45.80;;;;;;6126521;28;20059;-68
2022/03/22 00:37:18;;;;;;;14.48;5.65;;;13.60;45.90;;;;;;6121228;28;20091;-68
2022/03/22 00:40:20;;;;;;;16.15;5.72;;;13.60;45.90;;;;;;6127745;28;20047;-68
2022/03/22 00:43:21;;;;;;;9.02;4.82;;;13.50;46.00;;;;;;6126514;28;20115;-68
2022/03/22 00:46:22;;;;;;;13.30;5.53;;;13.50;46.20;;;;;;6127928;28;20039;-68
2022/03/22 00:49:23;;;;;;;11.77;5.95;;;13.50;46.20;;;;;;6127568;28;20098;-68
2022/03/22 00:52:25;;;;;;;16.10;5.95;;;13.40;46.30;;;;;;6126152;28;20052;-68
2022/03/22 00:55:27;;;;;;;22.67;5.80;;;13.40;46.50;;;;;;6127307;28;20428;-67
2022/03/22 00:58:28;;;;;;;13.70;5.57;;;13.40;46.50;;;;;;6126169;28;20043;-67
2022/03/22 01:01:29;;;;;;;17.55;5.45;;;13.30;46.50;;;;;;6127263;28;20085;-68
2022/03/22 01:04:29;;;;;;;14.77;5.82;;;13.30;46.50;;;;;;6126893;28;20035;-67
2022/03/22 01:07:33;;;;;;;15.20;6.10;;;13.30;46.60;;;;;;6126700;28;20047;-67
2022/03/22 01:10:37;;;;;;;14.50;5.65;;;13.20;46.70;;;;;;6126139;28;20044;-67
2022/03/22 01:13:38;;;;;;;12.13;5.50;;;13.20;46.80;;;;;;6125981;28;20471;-67
2022/03/22 01:16:39;;;;;;;13.95;6.20;;;13.20;46.90;;;;;;6125937;28;20044;-68
2022/03/22 01:19:40;;;;;;;18.90;6.35;;;13.20;47.00;;;;;;6102422;28;20064;-67
2022/03/22 01:22:45;;;;;;;16.70;5.93;;;13.10;46.90;;;;;;6125737;28;20351;-67
2022/03/22 01:25:48;;;;;;;14.15;5.68;;;13.10;47.00;;;;;;6124451;28;20145;-67
2022/03/22 01:28:48;;;;;;;16.98;5.97;;;13.10;47.10;;;;;;6125313;28;20402;-67
2022/03/22 01:31:50;;;;;;;15.43;5.57;;;13.00;47.20;;;;;;6125347;28;20122;-67
2022/03/22 01:34:51;;;;;;;19.55;6.07;;;12.90;47.20;;;;;;6120183;28;20047;-67
2022/03/22 01:37:54;;;;;;;18.70;6.53;;;12.90;47.30;;;;;;6125556;28;20047;-67
2022/03/22 01:40:55;;;;;;;14.00;6.25;;;12.90;47.40;;;;;;6126063;28;20035;-68
2022/03/22 01:43:56;;;;;;;11.52;5.53;;;12.90;47.50;;;;;;6126558;28;20444;-67
2022/03/22 01:47:00;;;;;;;19.50;5.28;;;12.90;47.50;;;;;;6125355;28;20063;-68
2022/03/22 01:50:02;;;;;;;14.73;6.03;;;12.80;47.60;;;;;;6123963;28;20051;-68
2022/03/22 01:53:03;;;;;;;15.73;6.30;;;12.80;47.80;;;;;;6127047;28;20043;-68
2022/03/22 01:56:04;;;;;;;19.95;6.07;;;12.70;47.90;;;;;;6125736;28;20051;-67
2022/03/22 01:59:04;;;;;;;20.25;6.10;;;12.70;47.90;;;;;;6127154;28;20087;-67
2022/03/22 02:08:46;;;;;;;15.20;5.88;;;12.70;48.00;;;;;;6124323;28;20464;-67
2022/03/22 02:11:47;;;;;;;14.02;6.22;;;12.60;47.90;;;;;;6126129;28;20063;-68
2022/03/22 02:14:48;;;;;;;26.50;5.72;;;12.70;47.90;;;;;;6124783;28;20361;-67
2022/03/22 02:17:50;;;;;;;16.10;6.03;;;12.70;47.90;;;;;;6104276;28;20040;-68
2022/03/22 02:20:51;;;;;;;20.63;6.40;;;12.60;47.80;;;;;;6103810;28;20043;-67
2022/03/22 02:23:55;;;;;;;12.10;5.68;;;12.60;47.90;;;;;;6138675;28;20039;-68
2022/03/22 02:26:56;;;;;;;21.02;6.20;;;12.60;47.90;;;;;;6108621;28;20047;-68
2022/03/22 02:29:57;;;;;;;17.80;5.57;;;12.60;48.60;;;;;;6125502;28;20040;-67
2022/03/22 02:33:01;;;;;;;13.50;6.05;;;12.50;48.00;;;;;;6105291;28;20051;-67
2022/03/22 02:36:01;;;;;;;10.68;5.82;;;12.50;48.80;;;;;;6125629;28;20043;-67
2022/03/22 02:39:02;;;;;;;20.40;5.80;;;12.40;48.20;;;;;;6124388;28;20377;-67
2022/03/22 02:42:03;;;;;;;21.15;5.88;;;12.40;48.30;;;;;;6124812;28;20054;-69
2022/03/22 02:45:04;;;;;;;19.48;5.88;;;12.40;48.30;;;;;;6125400;28;20127;-67
2022/03/22 02:48:05;;;;;;;16.75;6.10;;;12.40;48.40;;;;;;6119247;28;20134;-67
2022/03/22 02:51:07;;;;;;;16.75;5.85;;;12.40;48.40;;;;;;6129001;28;20032;-67
2022/03/22 02:54:07;;;;;;;15.27;6.70;;;12.40;48.40;;;;;;6128774;28;20060;-67
2022/03/22 02:57:08;;;;;;;19.30;6.45;;;12.50;48.30;;;;;;6128639;28;20042;-67
2022/03/22 03:00:12;;;;;;;18.42;6.68;;;12.50;48.30;;;;;;6128833;28;20059;-67
2022/03/22 03:03:13;;;;;;;18.33;6.97;;;12.50;48.30;;;;;;6129007;28;20047;-67
2022/03/22 03:06:13;;;;;;;19.13;7.60;;;12.40;48.20;;;;;;6128523;28;20126;-67
2022/03/22 03:09:14;;;;;;;16.42;6.53;;;12.50;48.30;;;;;;6129649;28;20394;-67
2022/03/22 03:12:16;;;;;;;15.07;6.28;;;12.40;48.10;;;;;;6128293;28;20039;-67
2022/03/22 03:15:17;;;;;;;13.05;7.70;;;12.40;48.10;;;;;;6128286;28;20414;-67
2022/03/22 03:18:19;;;;;;;17.40;6.32;;;12.40;48.00;;;;;;6126715;28;20028;-67
2022/03/22 03:21:19;;;;;;;14.60;6.50;;;12.40;48.00;;;;;;6128255;28;20039;-67
2022/03/22 03:24:20;;;;;;;19.23;7.13;;;12.40;48.00;;;;;;6112692;28;20032;-67
2022/03/22 03:27:22;;;;;;;29.05;8.32;;;12.40;48.00;;;;;;6128137;28;20036;-66
2022/03/22 03:30:22;;;;;;;19.48;7.65;;;12.30;47.90;;;;;;6128038;28;20095;-68
2022/03/22 03:33:24;;;;;;;16.48;7.20;;;12.30;47.90;;;;;;6128371;28;20059;-67
2022/03/22 03:36:24;;;;;;;16.08;7.65;;;12.20;47.90;;;;;;6127401;28;20094;-68
2022/03/22 03:39:25;;;;;;;16.88;6.82;;;12.20;47.90;;;;;;6128093;28;20039;-67
2022/03/22 03:42:26;;;;;;;17.08;7.07;;;12.20;47.90;;;;;;6127600;28;20047;-68
2022/03/22 03:48:47;;;;;;;20.70;7.05;;;12.10;48.00;;;;;;6126225;28;20040;-67
2022/03/22 03:51:47;;;;;;;14.43;6.93;;;12.10;48.00;;;;;;6124634;28;20351;-67
2022/03/22 03:54:49;;;;;;;19.00;7.15;;;12.00;48.10;;;;;;6129202;28;20372;-67
2022/03/22 03:57:50;;;;;;;16.85;6.82;;;12.00;48.20;;;;;;6128082;28;20106;-67
2022/03/22 04:00:51;;;;;;;14.40;6.60;;;12.00;48.30;;;;;;6127073;28;20055;-67
2022/03/22 04:03:52;;;;;;;15.77;6.68;;;11.90;48.40;;;;;;6109624;28;20055;-68
2022/03/22 04:06:53;;;;;;;13.25;6.70;;;11.90;48.40;;;;;;6127543;28;20054;-68
2022/03/22 04:09:54;;;;;;;20.27;7.78;;;11.80;48.40;;;;;;6127651;28;20478;-68
2022/03/22 04:12:55;;;;;;;16.58;5.70;;;11.80;48.40;;;;;;6128263;28;20050;-68
2022/03/22 04:15:56;;;;;;;11.75;6.57;;;11.80;48.50;;;;;;6127234;28;20131;-66
2022/03/22 04:18:58;;;;;;;31.77;7.20;;;11.70;48.50;;;;;;6119173;28;20424;-69
2022/03/22 04:21:58;;;;;;;13.50;6.97;;;11.70;48.60;;;;;;6127193;28;20474;-66
2022/03/22 04:24:59;;;;;;;16.50;7.05;;;11.60;48.50;;;;;;6127881;28;20038;-66
2022/03/22 04:34:40;;;;;;;13.75;6.65;;;11.40;48.80;;;;;;6118064;29;20079;-67
2022/03/22 04:37:42;;;;;;;20.73;6.55;;;11.40;48.90;;;;;;6126783;28;20114;-68
2022/03/22 04:40:43;;;;;;;16.58;6.70;;;11.30;48.90;;;;;;6127010;28;20046;-67
2022/03/22 04:43:45;;;;;;;17.67;6.97;;;11.30;49.00;;;;;;6126263;28;20361;-68
2022/03/22 04:46:46;;;;;;;11.10;5.93;;;11.30;49.00;;;;;;6127327;28;20560;-68
2022/03/22 04:49:47;;;;;;;15.85;6.30;;;11.20;48.90;;;;;;6127358;28;20036;-68
2022/03/22 04:59:28;;;;;;;13.82;6.85;;;11.30;49.30;;;;;;6126643;28;20036;-69
2022/03/22 05:02:29;;;;;;;15.48;7.05;;;11.30;49.30;;;;;;6125563;28;20138;-68
2022/03/22 05:08:49;;;;;;;21.50;6.95;;;11.30;49.40;;;;;;6126732;28;20050;-66
2022/03/22 05:11:51;;;;;;;21.00;7.15;;;11.20;49.30;;;;;;6124673;28;20036;-67
2022/03/22 05:14:52;;;;;;;14.85;7.22;;;11.20;49.30;;;;;;6125771;28;20445;-67
2022/03/22 05:17:56;;;;;;;12.50;6.45;;;11.20;49.30;;;;;;6121932;28;20047;-67
2022/03/22 05:20:57;;;;;;;23.83;7.05;;;11.10;49.20;;;;;;6126568;28;20031;-69
2022/03/22 05:23:58;;;;;;;14.32;7.18;;;11.10;49.30;;;;;;6109859;28;20066;-67
2022/03/22 05:27:00;;;;;;;14.88;6.70;;;11.10;49.40;;;;;;6109882;28;20408;-67
2022/03/22 05:30:01;;;;;;;20.67;7.07;;;11.00;49.30;;;;;;6126502;28;20365;-67
2022/03/22 05:33:02;;;;;;;15.85;6.47;;;10.90;49.30;;;;;;6124714;28;20039;-67
2022/03/22 05:36:04;;;;;;;14.68;6.50;;;10.90;49.30;;;;;;6126569;28;20130;-68
2022/03/22 05:39:05;;;;;;;14.20;7.05;;;10.90;49.30;;;;;;6126289;28;20043;-67
2022/03/22 05:42:06;;;;;;;14.65;6.85;;;10.90;49.40;;;;;;6118881;28;20087;-66
2022/03/22 05:45:09;;;;;;;20.98;7.85;;;10.90;49.40;;;;;;6125134;28;20414;-68
2022/03/22 05:48:11;;;;;;;14.02;6.30;;;10.80;49.40;;;;;;6108869;28;20066;-67
2022/03/22 05:51:12;;;;;;;19.13;7.03;;;10.80;49.40;;;;;;6117545;28;20043;-67
2022/03/22 05:54:14;;;;;;;17.35;7.45;;;10.90;49.40;;;;;;6123462;28;20050;-66
2022/03/22 05:57:16;;;;;;;15.63;7.25;;;10.90;49.30;;;;;;6107889;28;20473;-67
2022/03/22 06:00:20;;;;;;;20.83;7.63;;;10.90;49.30;;;;;;6125021;28;20040;-67
2022/03/22 06:03:22;;;;;;;26.55;5.80;;;10.90;49.20;;;;;;6124215;28;20091;-67
2022/03/22 06:06:23;;;;;;;18.67;6.82;;;10.90;49.20;;;;;;6125447;28;20063;-69
2022/03/22 06:09:24;;;;;;;17.67;6.80;;;10.90;49.20;;;;;;6124847;28;20048;-67
2022/03/22 06:12:26;;;;;;;21.75;6.90;;;10.90;49.20;;;;;;6125885;28;20023;-68
2022/03/22 06:15:31;;;;;;;16.45;6.25;;;10.90;49.00;;;;;;6122141;28;20358;-68
2022/03/22 06:18:32;;;;;;;13.27;6.38;;;10.90;48.90;;;;;;6118863;28;20032;-68
2022/03/22 06:21:34;;;;;;;20.83;6.43;;;10.90;48.60;;;;;;6124301;28;20055;-67
2022/03/22 06:24:35;;;;;;;20.65;7.13;;;10.90;48.60;;;;;;6127253;28;20533;-68
2022/03/22 06:27:36;;;;;;;14.15;6.35;;;10.90;48.60;;;;;;6130503;28;20090;-67
2022/03/22 06:30:37;;;;;;;20.58;6.88;;;10.90;48.60;;;;;;6130384;28;20032;-67
2022/03/22 06:33:38;;;;;;;15.50;6.13;;;10.90;48.40;;;;;;6128753;28;20043;-67
2022/03/22 06:36:39;;;;;;;13.02;6.90;;;10.90;48.30;;;;;;6129181;28;20039;-68
2022/03/22 06:39:39;;;;;;;11.63;6.03;;;10.90;48.30;;;;;;6130424;28;20055;-68
2022/03/22 06:42:41;;;;;;;16.75;6.15;;;10.90;48.30;;;;;;6129158;28;20114;-67
2022/03/22 06:45:44;;;;;;;17.58;6.90;;;10.90;48.30;;;;;;6128622;28;20028;-67
2022/03/22 06:48:45;;;;;;;18.20;7.20;;;10.90;48.20;;;;;;6124809;28;20194;-68
2022/03/22 06:51:46;;;;;;;19.85;6.55;;;10.90;48.10;;;;;;6128570;28;20032;-68
2022/03/22 06:54:47;;;;;;;23.65;6.60;;;11.00;48.10;;;;;;6122070;28;20032;-68
2022/03/22 06:57:51;;;;;;;16.45;7.57;;;11.00;48.00;;;;;;6129356;28;20051;-68
2022/03/22 07:00:55;;;;;;;19.17;7.82;;;11.10;48.00;;;;;;6130517;28;20098;-67
2022/03/22 07:03:55;;;;;;;22.77;7.18;;;11.10;47.80;;;;;;6129133;28;20027;-68
2022/03/22 07:06:57;;;;;;;30.05;7.63;;;11.20;47.70;;;;;;6130369;28;20373;-69
2022/03/22 07:09:58;;;;;;;17.85;7.93;;;11.30;47.60;;;;;;6129222;28;20087;-67
2022/03/22 07:13:04;;;;;;;22.25;7.13;;;11.30;47.50;;;;;;6124345;28;20031;-67
2022/03/22 07:16:05;;;;;;;23.17;9.23;;;11.30;47.40;;;;;;6114588;29;20054;-68
2022/03/22 07:19:05;;;;;;;17.73;8.30;;;11.30;47.40;;;;;;6129185;29;20036;-67
2022/03/22 07:22:07;;;;;;;22.83;7.85;;;11.40;47.40;;;;;;6130324;29;20425;-67
2022/03/22 07:25:09;;;;;;;26.52;7.93;;;11.40;47.40;;;;;;6131065;28;20377;-68
2022/03/22 07:28:10;;;;;;;22.60;7.05;;;11.40;47.40;;;;;;6129750;29;20431;-68
2022/03/22 07:31:10;;;;;;;15.98;7.18;;;11.50;47.50;;;;;;6130877;28;20040;-68
2022/03/22 07:34:16;;;;;;;24.58;9.80;;;11.50;47.40;;;;;;6129133;29;20056;-68
2022/03/22 07:37:17;;;;;;;18.98;8.10;;;11.60;47.50;;;;;;6129532;28;20453;-68
2022/03/22 07:40:19;;;;;;;25.45;7.97;;;11.70;47.50;;;;;;6129478;29;20039;-67
2022/03/22 07:43:20;;;;;;;19.70;8.18;;;11.80;48.00;;;;;;6113812;29;20097;-67
2022/03/22 07:46:23;;;;;;;19.00;8.77;;;11.90;47.40;;;;;;6129669;29;20044;-67
2022/03/22 07:53:01;;;;;;;23.25;8.73;;;12.10;47.20;;;;;;6128971;28;20040;-69
2022/03/22 07:56:02;;;;;;;19.13;9.18;;;12.20;47.00;;;;;;6128143;28;20078;-67
2022/03/22 07:59:03;;;;;;;20.35;10.43;;;12.30;46.80;;;;;;6113129;28;20099;-68
2022/03/22 08:02:04;;;;;;;19.10;9.02;;;12.50;46.80;;;;;;6127691;28;20457;-67
2022/03/22 08:05:06;;;;;;;22.63;9.07;;;12.60;46.40;;;;;;6127870;28;20043;-71
2022/03/22 08:08:08;;;;;;;21.10;8.60;;;12.70;46.10;;;;;;6127687;28;20100;-67
2022/03/22 08:11:10;;;;;;;19.73;8.60;;;12.80;45.90;;;;;;6128926;28;20044;-67
2022/03/22 08:14:12;;;;;;;21.58;8.35;;;13.00;45.70;;;;;;6128631;28;20136;-67
2022/03/22 08:17:13;;;;;;;18.00;7.95;;;13.10;45.50;;;;;;6126751;28;20039;-67
2022/03/22 08:20:15;;;;;;;20.75;8.85;;;13.20;45.10;;;;;;6127968;28;20067;-67
2022/03/22 08:23:16;;;;;;;25.55;9.20;;;13.40;44.80;;;;;;6127412;28;20121;-67
2022/03/22 08:26:17;;;;;;;23.45;9.90;;;13.50;44.70;;;;;;6128101;28;20051;-67
2022/03/22 08:29:19;;;;;;;34.45;9.25;;;13.50;44.60;;;;;;6128701;28;20044;-67
2022/03/22 08:32:21;;;;;;;18.58;8.15;;;13.70;44.50;;;;;;6127104;28;20036;-67
2022/03/22 08:35:23;;;;;;;23.27;10.25;;;13.90;44.40;;;;;;6127015;28;20039;-67
2022/03/22 08:38:24;;;;;;;23.13;9.68;;;14.00;44.10;;;;;;6127355;28;20036;-68
2022/03/22 08:41:25;;;;;;;23.23;9.75;;;14.10;44.00;;;;;;6127234;28;20040;-67
2022/03/22 08:44:26;;;;;;;24.13;9.48;;;14.30;43.90;;;;;;6127489;28;20101;-68
2022/03/22 08:47:29;;;;;;;21.27;9.75;;;14.40;43.70;;;;;;6125787;28;20059;-68
2022/03/22 08:50:30;;;;;;;26.50;9.50;;;14.50;43.40;;;;;;6122888;28;20047;-69
2022/03/22 08:53:32;;;;;;;22.48;9.48;;;14.60;43.10;;;;;;6127627;28;20098;-68
2022/03/22 08:56:33;;;;;;;22.80;9.52;;;14.70;43.00;;;;;;6127530;28;20036;-68
2022/03/22 08:59:34;;;;;;;21.48;9.60;;;14.70;43.10;;;;;;6126838;28;20442;-67
2022/03/22 09:02:46;;;;;;;21.77;8.75;;;14.80;43.10;;;;;;6126453;28;20047;-67
2022/03/22 09:09:09;;;;;;;29.23;8.52;;;15.00;42.90;;;;;;6125884;28;20054;-66
2022/03/22 09:12:12;;;;;;;17.88;8.68;;;15.00;42.90;;;;;;6127590;28;20492;-68
2022/03/22 09:15:13;;;;;;;21.90;7.78;;;15.10;43.50;;;;;;6127558;28;20058;-68
2022/03/22 09:18:14;;;;;;;23.35;8.82;;;15.20;42.90;;;;;;6108465;28;20043;-68
2022/03/22 09:21:16;;;;;;;20.70;9.25;;;15.20;42.80;;;;;;6125811;28;20098;-70
2022/03/22 09:24:17;;;;;;;18.63;9.38;;;15.20;42.80;;;;;;6126348;28;20044;-67
2022/03/22 09:27:18;;;;;;;23.77;9.27;;;15.30;42.70;;;;;;6126874;28;20122;-68
2022/03/22 09:30:20;;;;;;;26.02;8.38;;;15.40;42.60;;;;;;6126823;28;20119;-68
2022/03/22 09:33:21;;;;;;;33.10;8.82;;;15.50;42.40;;;;;;6125188;28;20038;-68
2022/03/22 09:36:22;;;;;;;27.23;9.50;;;15.60;42.30;;;;;;6127141;28;20028;-67
2022/03/22 09:39:24;;;;;;;20.08;9.73;;;15.70;42.00;;;;;;6109134;28;20361;-67
2022/03/22 09:42:27;;;;;;;18.80;8.60;;;15.70;42.30;;;;;;6126583;28;20036;-67
2022/03/22 09:45:30;;;;;;;19.33;9.07;;;15.90;41.70;;;;;;6126673;28;20123;-68
2022/03/22 09:48:33;;;;;;;27.67;9.85;;;15.90;41.50;;;;;;6114345;28;20131;-67
2022/03/22 09:51:44;;;;;;;20.77;8.80;;;16.00;41.30;;;;;;6126878;28;20102;-67
2022/03/22 09:54:46;;;;;;;24.27;7.78;;;16.00;41.00;;;;;;6126642;28;20186;-68
2022/03/22 09:57:47;;;;;;;22.63;8.43;;;16.10;41.00;;;;;;6126083;28;20357;-68
2022/03/22 10:00:49;;;;;;;26.55;8.90;;;16.10;40.60;;;;;;6126691;28;20078;-68
2022/03/22 10:04:00;;;;;;;16.23;8.07;;;16.10;40.40;;;;;;6124821;28;20099;-68
2022/03/22 10:07:03;;;;;;;15.90;7.75;;;16.10;40.30;;;;;;6126393;28;20098;-68
2022/03/22 10:10:06;;;;;;;20.52;8.63;;;16.20;40.30;;;;;;6125366;28;20122;-68
2022/03/22 10:13:08;;;;;;;21.20;8.30;;;16.30;40.30;;;;;;6120083;28;20390;-67
2022/03/22 10:16:09;;;;;;;23.50;7.90;;;16.40;39.90;;;;;;6108563;28;20036;-69
2022/03/22 10:19:23;;;;;;;15.20;7.70;;;16.40;39.70;;;;;;6123700;28;20049;-68
2022/03/22 10:22:26;;;;;;;17.92;7.60;;;16.50;39.50;;;;;;6126290;28;20119;-67
2022/03/22 10:25:32;;;;;;;28.35;9.10;;;16.60;39.50;;;;;;6125271;28;20176;-69
2022/03/22 10:28:34;;;;;;;21.30;8.38;;;16.60;39.30;;;;;;6125181;28;20047;-70
2022/03/22 10:31:40;;;;;;;20.33;8.05;;;16.70;39.10;;;;;;6124337;28;20050;-69
2022/03/22 10:34:42;;;;;;;22.13;8.23;;;16.80;39.00;;;;;;6121450;28;20337;-69
2022/03/22 10:37:47;;;;;;;18.17;7.85;;;17.00;38.90;;;;;;6126312;28;20554;-70
2022/03/22 10:40:49;;;;;;;18.23;7.50;;;17.20;38.20;;;;;;6126545;28;20047;-68
2022/03/22 10:44:01;;;;;;;20.90;7.82;;;17.50;37.30;;;;;;6108971;28;20044;-67
2022/03/22 10:47:03;;;;;;;18.45;7.25;;;17.90;36.50;;;;;;6123381;28;20039;-67
2022/03/22 10:50:05;;;;;;;16.48;6.88;;;18.30;35.50;;;;;;6124705;28;20044;-68
2022/03/22 10:53:07;;;;;;;22.65;7.75;;;18.60;34.50;;;;;;6124573;28;20110;-68
2022/03/22 10:56:09;;;;;;;16.05;7.00;;;18.90;33.50;;;;;;6123465;28;20150;-68
2022/03/22 10:59:13;;;;;;;17.83;7.10;;;19.10;32.10;;;;;;6123299;28;20044;-68
2022/03/22 11:02:21;;;;;;;18.48;6.95;;;19.30;31.40;;;;;;6117106;28;20437;-67
2022/03/22 11:05:24;;;;;;;16.15;6.90;;;19.60;31.10;;;;;;6123380;28;20054;-68
2022/03/22 11:08:28;;;;;;;17.88;7.10;;;19.90;30.90;;;;;;6121445;28;20078;-68
2022/03/22 11:11:32;;;;;;;17.25;8.23;;;20.20;30.30;;;;;;6127161;28;20429;-68
2022/03/22 11:14:34;;;;;;;20.23;7.63;;;20.30;30.10;;;;;;6120142;28;20035;-69
2022/03/22 11:17:36;;;;;;;18.63;8.25;;;20.50;30.00;;;;;;6126772;28;20446;-68
2022/03/22 11:20:48;;;;;;;13.52;7.07;;;20.70;30.00;;;;;;6127371;28;20119;-68
2022/03/22 11:23:51;;;;;;;12.45;6.82;;;20.80;30.20;;;;;;6128192;28;20361;-69
2022/03/22 11:26:56;;;;;;;16.17;7.05;;;21.10;30.10;;;;;;6128511;28;20473;-67
2022/03/22 11:29:57;;;;;;;19.42;7.43;;;21.30;30.00;;;;;;6127847;28;20032;-68
2022/03/22 11:36:20;;;;;;;12.93;7.00;;;21.80;29.40;;;;;;6127451;28;20099;-68
2022/03/22 11:42:15;;;;;;;19.40;7.00;;;22.10;29.20;;;;;;6111368;28;20036;-68
2022/03/22 11:42:57;;;;;;;19.10;8.38;;;22.40;28.70;;;;;;6125242;28;20095;-68
2022/03/22 11:45:58;;;;;;;14.25;6.93;;;22.70;28.20;;;;;;6127065;28;20038;-68
2022/03/22 11:49:17;;;;;;;15.45;7.18;;;23.00;28.00;;;;;;6119548;28;20051;-69
2022/03/22 11:52:20;;;;;;;13.20;6.50;;;23.30;27.60;;;;;;6126956;28;20042;-68
2022/03/22 11:55:23;;;;;;;12.70;6.15;;;23.60;27.10;;;;;;6126652;28;20035;-70
2022/03/22 11:58:27;;;;;;;11.48;7.00;;;23.80;26.40;;;;;;6126827;28;20039;-68
2022/03/22 12:01:36;;;;;;;17.38;7.03;;;24.10;25.50;;;;;;6126623;28;20036;-68
2022/03/22 12:04:51;;;;;;;15.82;6.70;;;24.40;25.40;;;;;;6121546;28;20497;-69
2022/03/22 12:07:52;;;;;;;11.55;5.97;;;24.80;25.20;;;;;;6125580;28;20043;-68
2022/03/22 12:10:59;;;;;;;18.80;6.45;;;25.20;24.50;;;;;;6109686;28;20043;-68
2022/03/22 12:14:00;;;;;;;14.63;5.88;;;25.60;24.10;;;;;;6124066;28;20059;-68
2022/03/22 12:17:03;;;;;;;15.73;6.65;;;26.00;23.70;;;;;;6108402;28;20437;-68
2022/03/22 12:20:09;;;;;;;12.25;6.00;;;26.30;23.30;;;;;;6124216;28;20492;-68
2022/03/22 12:23:10;;;;;;;16.17;5.70;;;26.50;23.00;;;;;;6124600;28;20050;-68
2022/03/22 12:26:11;;;;;;;21.42;6.95;;;26.80;22.60;;;;;;6123785;28;20339;-69
2022/03/22 12:29:12;;;;;;;17.00;6.30;;;27.10;22.20;;;;;;6098448;28;20449;-68
2022/03/22 12:32:20;;;;;;;11.68;5.78;;;27.50;21.80;;;;;;6105618;28;20414;-68
2022/03/22 12:35:21;;;;;;;13.67;5.37;;;28.00;21.40;;;;;;6124053;28;20028;-68
2022/03/22 12:38:22;;;;;;;13.85;5.63;;;28.50;20.80;;;;;;6126472;28;20039;-69
2022/03/22 12:41:24;;;;;;;11.35;5.32;;;28.80;20.10;;;;;;6126248;28;20039;-68
2022/03/22 12:44:25;;;;;;;10.10;5.32;;;28.90;19.70;;;;;;6125666;28;20105;-68
2022/03/22 12:47:27;;;;;;;16.33;5.40;;;29.40;19.50;;;;;;6126137;28;20036;-68
2022/03/22 12:50:28;;;;;;;22.33;5.63;;;29.80;18.80;;;;;;6125124;28;20046;-67
2022/03/22 12:53:31;;;;;;;14.73;5.55;;;30.30;18.50;;;;;;6125601;28;20061;-69
2022/03/22 12:56:32;;;;;;;9.00;5.35;;;30.60;18.20;;;;;;6125329;28;20067;-69
2022/03/22 12:59:34;;;;;;;9.52;4.82;;;31.10;17.80;;;;;;6126101;28;20031;-67
2022/03/22 13:02:38;;;;;;;12.45;4.85;;;31.50;17.20;;;;;;6126151;28;20059;-68
2022/03/22 13:05:44;;;;;;;11.68;5.32;;;31.40;16.80;;;;;;6124525;28;20078;-67
2022/03/22 13:12:10;;;;;;;10.13;4.55;;;30.00;17.30;;;;;;6125809;28;20090;-67
2022/03/22 13:15:13;;;;;;;11.40;4.85;;;30.00;17.50;;;;;;6125284;28;20039;-69
2022/03/22 13:18:30;;;;;;;15.77;4.93;;;30.30;17.20;;;;;;6121200;28;20036;-67
2022/03/22 13:21:33;;;;;;;11.38;5.10;;;30.60;16.60;;;;;;6125538;28;20102;-69
2022/03/22 13:24:35;;;;;;;14.88;5.22;;;30.60;16.70;;;;;;6126667;28;20102;-69
2022/03/22 13:27:37;;;;;;;12.52;4.85;;;30.70;16.60;;;;;;6126535;28;20031;-68
2022/03/22 13:30:44;;;;;;;12.90;5.13;;;30.80;16.50;;;;;;6126211;28;20134;-68
2022/03/22 13:33:53;;;;;;;10.75;5.07;;;30.80;16.20;;;;;;6123615;28;20123;-68
2022/03/22 13:37:06;;;;;;;10.82;4.88;;;30.90;16.20;;;;;;6126019;28;20343;-69
2022/03/22 13:40:09;;;;;;;11.05;5.00;;;30.90;16.10;;;;;;6125077;28;20035;-68
2022/03/22 13:43:11;;;;;;;13.57;5.25;;;29.90;16.40;;;;;;6124945;28;20123;-68
2022/03/22 13:46:12;;;;;;;7.90;4.53;;;29.00;17.00;;;;;;6124673;28;20054;-68
2022/03/22 13:49:12;;;;;;;9.27;4.57;;;28.00;17.00;;;;;;6125071;28;20048;-68
2022/03/22 13:52:26;;;;;;;14.10;5.82;;;27.00;17.60;;;;;;6124522;28;20067;-68
2022/03/22 13:55:29;;;;;;;10.95;4.95;;;26.10;18.20;;;;;;6125345;28;20036;-67
2022/03/22 13:58:37;;;;;;;13.98;4.95;;;25.30;18.70;;;;;;6125329;28;20102;-68
2022/03/22 14:01:39;;;;;;;12.00;4.68;;;24.60;19.20;;;;;;6124671;28;20042;-67
2022/03/22 14:04:40;;;;;;;10.15;4.25;;;24.00;19.60;;;;;;6124583;28;20054;-69
2022/03/22 14:07:54;;;;;;;12.07;4.25;;;23.50;20.10;;;;;;6125171;28;20035;-68
2022/03/22 14:10:55;;;;;;;10.70;4.53;;;23.10;20.40;;;;;;6124236;28;20039;-68
2022/03/22 14:13:56;;;;;;;7.05;4.10;;;22.80;20.50;;;;;;6125088;28;20099;-68
2022/03/22 14:16:57;;;;;;;11.35;4.95;;;22.50;20.90;;;;;;6108496;28;20031;-68
2022/03/22 14:19:58;;;;;;;9.35;4.22;;;22.30;21.30;;;;;;6120995;28;20032;-68
2022/03/22 14:22:59;;;;;;;10.27;4.00;;;22.00;21.40;;;;;;6124162;28;20055;-68
2022/03/22 14:26:00;;;;;;;7.47;4.15;;;21.80;21.60;;;;;;6125518;28;20036;-68
2022/03/22 14:29:00;;;;;;;10.30;4.07;;;21.60;21.70;;;;;;6123525;28;20099;-68
2022/03/22 14:32:01;;;;;;;13.25;4.57;;;21.50;21.70;;;;;;6124533;28;20517;-68
2022/03/22 14:38:31;;;;;;;9.93;5.03;;;21.30;22.00;;;;;;6121408;28;20472;-68
2022/03/22 14:41:33;;;;;;;7.82;4.00;;;21.30;22.10;;;;;;6124216;28;20050;-68
2022/03/22 14:44:34;;;;;;;16.23;4.43;;;21.20;22.10;;;;;;6122775;28;20057;-67
2022/03/22 14:47:35;;;;;;;15.13;4.78;;;21.10;22.20;;;;;;6128243;28;20059;-67
2022/03/22 14:50:36;;;;;;;12.23;4.40;;;21.10;22.40;;;;;;6128322;28;20103;-67
2022/03/22 15:00:16;;;;;;;19.73;4.57;;;20.90;22.60;;;;;;6127078;28;20097;-67
2022/03/22 15:03:18;;;;;;;10.32;4.13;;;20.80;22.80;;;;;;6126526;28;20052;-68
2022/03/22 15:06:20;;;;;;;12.85;4.75;;;20.80;22.90;;;;;;6128162;28;20062;-67
2022/03/22 15:09:21;;;;;;;8.40;4.28;;;20.70;23.00;;;;;;6127862;28;20127;-68
2022/03/22 15:12:21;;;;;;;10.68;5.50;;;20.70;23.10;;;;;;6110937;28;20036;-68
2022/03/22 15:15:23;;;;;;;14.20;5.10;;;20.70;23.20;;;;;;6125077;28;20373;-68
2022/03/22 15:18:23;;;;;;;14.18;5.18;;;20.70;23.30;;;;;;6125223;28;20044;-68
2022/03/22 15:21:26;;;;;;;11.45;4.70;;;20.60;23.30;;;;;;6126414;28;20107;-68
2022/03/22 15:24:27;;;;;;;8.90;5.07;;;20.60;23.30;;;;;;6128047;28;20469;-68
2022/03/22 15:27:28;;;;;;;8.93;4.47;;;20.60;23.30;;;;;;6104641;29;20050;-69
2022/03/22 15:30:30;;;;;;;10.27;4.30;;;20.60;23.40;;;;;;6128094;28;20051;-68
2022/03/22 15:33:32;;;;;;;9.93;3.80;;;20.50;23.40;;;;;;6121051;28;20404;-68
2022/03/22 15:36:33;;;;;;;10.43;4.88;;;20.50;24.00;;;;;;6105488;29;20089;-68
2022/03/22 15:39:34;;;;;;;7.70;4.70;;;20.50;23.50;;;;;;6127952;28;20047;-68
2022/03/22 15:42:35;;;;;;;12.88;5.00;;;20.50;23.50;;;;;;6127651;28;20473;-67
2022/03/22 15:45:36;;;;;;;7.78;4.55;;;20.40;23.50;;;;;;6126423;28;20055;-67
2022/03/22 15:48:38;;;;;;;10.35;5.32;;;20.40;23.50;;;;;;6125341;28;20040;-67
2022/03/22 15:51:39;;;;;;;11.48;4.88;;;20.40;23.50;;;;;;6126332;28;20032;-67
2022/03/22 15:54:40;;;;;;;17.75;5.40;;;20.40;23.40;;;;;;6125635;28;20043;-67
2022/03/22 15:57:42;;;;;;;11.45;5.05;;;20.40;23.50;;;;;;6109054;28;20043;-67
2022/03/22 16:00:43;;;;;;;11.13;4.50;;;20.40;23.60;;;;;;6126381;28;20370;-68
2022/03/22 16:03:43;;;;;;;13.70;5.10;;;20.40;23.60;;;;;;6126790;28;20051;-68
2022/03/22 16:06:44;;;;;;;11.23;5.15;;;20.40;23.60;;;;;;6125659;28;20032;-68
2022/03/22 16:09:45;;;;;;;11.73;5.38;;;20.40;23.60;;;;;;6124507;28;20047;-68
2022/03/22 16:12:46;;;;;;;11.95;4.78;;;20.40;23.70;;;;;;6106130;28;20027;-68
2022/03/22 16:15:51;;;;;;;13.35;5.50;;;20.40;23.90;;;;;;6126611;28;20465;-68
2022/03/22 16:18:52;;;;;;;12.40;5.35;;;20.40;23.90;;;;;;6124842;28;20035;-68
2022/03/22 16:21:55;;;;;;;12.40;5.88;;;20.40;23.90;;;;;;6127954;28;20031;-68
2022/03/22 16:24:56;;;;;;;15.60;6.22;;;20.40;23.80;;;;;;6124034;28;20119;-67
2022/03/22 16:27:57;;;;;;;11.02;5.93;;;20.40;23.80;;;;;;6127584;28;20047;-68